Cobb County-Mc Collum Field Atlanta US
ICAO: KRYY
IATA: RYY
Category: Medium
Scheduled Services: No

Elevation: 1040 ft
TransAlt. 18000 ft.

Airport Communications:
ATLANTA APP/DEP:121
AWOS 3:128.125
CTAF:125.9
GND:119
MC COLLUM TWR:125.9
UNICOM:122.7

KRYY Zoom In..

Runways:

(A) RW 09 length 6311 ft width 100 ft
---- / hdg 93

(B) RW 27 length 6311 ft width 100 ft
ILS 111.90 / hdg 273

Location; KRYY
Day. 31 / Time. 11.50 Zulu
* Altimeter: 30.11
* Temperature: 7/° c. 44.6°f.
* Wind from: 280° Speed 05 kn.
Dewpoint: //° c.
Visibility: 10 Statute Miles.
Clouds: Clear (automated report).

KRYY 311150Z 28005KT 10SM CLR 17/14 A3011 RMK AO2 SLP914 6//// 7//// T01720139 10200 20156 53016 PNO $


Wind From 280°
Speed 05 kn.

 
 
jpsmedia worldairports.se 2020   terms of use